createdAt,value
2023-04-30T00:00:43.413Z,44.10
2023-04-30T00:03:10.226Z,48.37
2023-04-30T00:05:37.594Z,50.60
2023-04-30T00:08:05.211Z,45.73
2023-04-30T00:10:31.935Z,46.13
2023-04-30T00:12:58.676Z,49.27
2023-04-30T00:15:25.432Z,49.70
2023-04-30T00:17:52.913Z,49.47
2023-04-30T00:20:19.747Z,49.40
2023-04-30T00:22:46.489Z,48.50
2023-04-30T00:25:13.168Z,47.13
2023-04-30T00:27:40.840Z,44.30
2023-04-30T00:30:08.210Z,43.90
2023-04-30T00:32:35.456Z,45.67
2023-04-30T00:35:02.354Z,47.30
2023-04-30T00:37:29.292Z,47.70
2023-04-30T00:39:56.166Z,49.03
2023-04-30T00:42:23.571Z,45.50
2023-04-30T00:44:50.292Z,42.20
2023-04-30T00:47:17.045Z,43.93
2023-04-30T00:49:43.827Z,43.07
2023-04-30T00:52:10.821Z,44.00
2023-04-30T00:54:37.866Z,43.77
2023-04-30T00:57:05.760Z,42.30
2023-04-30T00:59:33.090Z,43.47
2023-04-30T01:02:00.047Z,44.17
2023-04-30T01:04:27.264Z,39.43
2023-04-30T01:06:54.133Z,42.90
2023-04-30T01:09:21.057Z,41.63
2023-04-30T01:11:47.781Z,39.23
2023-04-30T01:14:34.707Z,39.60
2023-04-30T01:17:15.827Z,42.87
2023-04-30T01:19:43.386Z,39.70
2023-04-30T01:22:14.488Z,40.97
2023-04-30T01:25:01.503Z,40.87
2023-04-30T01:27:50.230Z,39.30
2023-04-30T01:30:18.633Z,42.13
2023-04-30T01:32:45.348Z,41.23
2023-04-30T01:35:12.704Z,43.17
2023-04-30T01:37:41.273Z,42.53
2023-04-30T01:40:13.894Z,41.10
2023-04-30T01:43:16.929Z,42.47
2023-04-30T01:46:02.438Z,38.90
2023-04-30T01:48:35.063Z,37.10
2023-04-30T01:51:40.420Z,39.17
2023-04-30T01:54:12.875Z,36.60
2023-04-30T01:56:43.031Z,44.63
2023-04-30T01:59:10.293Z,38.30
2023-04-30T02:01:37.296Z,36.90
2023-04-30T02:04:05.155Z,41.83
2023-04-30T02:06:33.098Z,37.43
2023-04-30T02:09:05.450Z,39.27
2023-04-30T02:11:32.528Z,36.73
2023-04-30T02:13:59.285Z,39.07
2023-04-30T02:16:26.265Z,34.60
2023-04-30T02:18:52.978Z,32.30
2023-04-30T02:21:19.709Z,34.77
2023-04-30T02:23:47.497Z,33.20
2023-04-30T02:26:14.352Z,37.67
2023-04-30T02:28:41.136Z,32.37
2023-04-30T02:31:08.171Z,32.00
2023-04-30T02:33:35.002Z,32.70
2023-04-30T02:36:01.763Z,36.33
2023-04-30T02:38:28.474Z,31.10
2023-04-30T02:40:55.182Z,32.40
2023-04-30T02:43:21.908Z,35.37
2023-04-30T02:45:48.702Z,34.07
2023-04-30T02:48:15.839Z,38.73
2023-04-30T02:50:42.564Z,32.70
2023-04-30T02:53:09.263Z,34.60
2023-04-30T02:55:36.221Z,36.73
2023-04-30T02:58:03.160Z,34.00
2023-04-30T03:00:29.971Z,34.60
2023-04-30T03:02:57.109Z,36.90
2023-04-30T03:05:24.083Z,33.20
2023-04-30T03:07:50.978Z,35.87
2023-04-30T03:10:19.344Z,35.63
2023-04-30T03:12:46.101Z,31.53
2023-04-30T03:15:12.986Z,36.90
2023-04-30T03:17:39.954Z,40.37
2023-04-30T03:20:07.395Z,42.57
2023-04-30T03:22:34.135Z,43.27
2023-04-30T03:25:01.005Z,41.37
2023-04-30T03:27:27.974Z,42.47
2023-04-30T03:29:54.864Z,41.97
2023-04-30T03:32:21.860Z,38.67
2023-04-30T03:34:48.605Z,40.57
2023-04-30T03:37:15.434Z,43.57
2023-04-30T03:39:42.237Z,42.87
2023-04-30T03:42:08.928Z,41.17
2023-04-30T03:44:35.813Z,46.60
2023-04-30T03:47:02.671Z,42.77
2023-04-30T03:49:29.430Z,43.63
2023-04-30T03:51:56.125Z,42.93
2023-04-30T03:54:23.129Z,46.40
2023-04-30T03:56:49.904Z,44.33
2023-04-30T03:59:16.608Z,44.50
2023-04-30T04:01:43.490Z,51.30
2023-04-30T04:04:10.309Z,44.40
2023-04-30T04:06:37.212Z,49.93
2023-04-30T04:09:04.939Z,45.27
2023-04-30T04:11:31.713Z,47.10
2023-04-30T04:13:58.438Z,45.63
2023-04-30T04:16:25.149Z,45.57
2023-04-30T04:18:52.483Z,50.87
2023-04-30T04:21:19.572Z,48.73
2023-04-30T04:23:46.321Z,47.33
2023-04-30T04:26:13.600Z,48.30
2023-04-30T04:28:40.356Z,53.50
2023-04-30T04:31:08.058Z,50.73
2023-04-30T04:33:35.185Z,46.97
2023-04-30T04:36:01.877Z,46.40
2023-04-30T04:38:28.540Z,46.23
2023-04-30T04:40:55.887Z,45.70
2023-04-30T04:43:23.478Z,45.17
2023-04-30T04:45:50.427Z,49.57
2023-04-30T04:48:17.299Z,48.03
2023-04-30T04:50:44.025Z,44.50
2023-04-30T04:53:10.970Z,44.87
2023-04-30T04:55:38.118Z,45.33
2023-04-30T04:58:04.898Z,44.10
2023-04-30T05:00:32.039Z,43.33
2023-04-30T05:02:59.395Z,42.33
2023-04-30T05:05:26.417Z,51.57
2023-04-30T05:07:55.122Z,48.33
2023-04-30T05:10:22.044Z,47.90
2023-04-30T05:12:48.807Z,46.23
2023-04-30T05:15:15.583Z,42.93
2023-04-30T05:17:42.736Z,41.33
2023-04-30T05:20:09.768Z,47.70
2023-04-30T05:22:36.472Z,44.97
2023-04-30T05:25:03.168Z,44.00
2023-04-30T05:27:29.893Z,41.17
2023-04-30T05:29:56.765Z,41.70
2023-04-30T05:32:23.908Z,45.27
2023-04-30T05:34:50.709Z,40.00
2023-04-30T05:37:19.666Z,41.67
2023-04-30T05:39:46.772Z,38.47
2023-04-30T05:42:13.492Z,36.83
2023-04-30T05:44:40.617Z,40.53
2023-04-30T05:47:07.724Z,45.27
2023-04-30T05:49:36.014Z,36.93
2023-04-30T05:52:03.858Z,37.00
2023-04-30T05:54:31.207Z,35.37
2023-04-30T05:56:57.885Z,38.73
2023-04-30T05:59:24.669Z,32.63
2023-04-30T06:01:51.614Z,32.03
2023-04-30T06:04:18.614Z,39.83
2023-04-30T06:06:45.565Z,34.83
2023-04-30T06:09:12.456Z,29.80
2023-04-30T06:11:41.654Z,22.67
2023-04-30T06:14:10.317Z,21.27
2023-04-30T06:16:38.113Z,18.17
2023-04-30T06:19:04.811Z,16.43
2023-04-30T06:21:32.061Z,19.93
2023-04-30T06:23:58.753Z,16.93
2023-04-30T06:26:25.497Z,16.77
2023-04-30T06:28:52.689Z,17.90
2023-04-30T06:31:19.541Z,17.43
2023-04-30T06:33:46.241Z,18.43
2023-04-30T06:36:13.431Z,16.53
2023-04-30T06:38:40.538Z,13.33
2023-04-30T06:41:07.211Z,19.03
2023-04-30T06:43:33.883Z,14.77
2023-04-30T06:46:01.279Z,15.33
2023-04-30T06:48:28.118Z,15.50
2023-04-30T06:50:54.826Z,14.57
2023-04-30T06:53:21.700Z,17.23
2023-04-30T06:55:48.903Z,14.93
2023-04-30T06:58:15.759Z,15.13
2023-04-30T07:00:43.157Z,13.43
2023-04-30T07:03:09.908Z,13.23
2023-04-30T07:05:36.656Z,15.33
2023-04-30T07:08:04.183Z,15.83
2023-04-30T07:10:31.762Z,14.93
2023-04-30T07:12:59.399Z,14.53
2023-04-30T07:15:26.562Z,14.67
2023-04-30T07:17:53.425Z,15.50
2023-04-30T07:20:20.730Z,14.50
2023-04-30T07:22:47.408Z,17.63
2023-04-30T07:25:14.167Z,15.80
2023-04-30T07:27:41.144Z,17.57
2023-04-30T07:30:09.393Z,16.97
2023-04-30T07:32:36.475Z,20.30
2023-04-30T07:35:04.004Z,16.33
2023-04-30T07:37:30.999Z,19.43
2023-04-30T07:39:58.467Z,16.87
2023-04-30T07:42:25.170Z,19.53
2023-04-30T07:44:53.017Z,19.50
2023-04-30T07:47:20.177Z,20.03
2023-04-30T07:49:47.606Z,19.63
2023-04-30T07:52:14.475Z,17.20
2023-04-30T07:54:41.267Z,18.27
2023-04-30T07:57:07.994Z,18.73
2023-04-30T07:59:34.697Z,17.80
2023-04-30T08:02:01.835Z,22.07
2023-04-30T08:04:28.677Z,18.03
2023-04-30T08:06:55.732Z,18.40
2023-04-30T08:09:22.548Z,17.73
2023-04-30T08:11:49.227Z,19.13
2023-04-30T08:14:16.038Z,17.17
2023-04-30T08:16:42.766Z,18.13
2023-04-30T08:19:09.566Z,18.33
2023-04-30T08:21:36.431Z,16.67
2023-04-30T08:24:03.256Z,17.20
2023-04-30T08:26:29.984Z,16.37
2023-04-30T08:28:56.718Z,17.63
2023-04-30T08:31:23.497Z,18.47
2023-04-30T08:33:50.182Z,18.60
2023-04-30T08:36:16.882Z,14.23
2023-04-30T08:38:43.544Z,18.07
2023-04-30T08:41:13.913Z,16.03
2023-04-30T08:43:41.297Z,15.57
2023-04-30T08:46:08.058Z,13.20
2023-04-30T08:48:35.382Z,15.23
2023-04-30T08:51:03.192Z,14.70
2023-04-30T08:53:31.111Z,14.53
2023-04-30T08:55:58.502Z,13.30
2023-04-30T08:58:25.280Z,16.50
2023-04-30T09:00:52.188Z,13.97
2023-04-30T09:03:19.067Z,14.33
2023-04-30T09:05:46.291Z,13.83
2023-04-30T09:08:17.314Z,12.63
2023-04-30T09:10:44.423Z,13.93
2023-04-30T09:13:12.281Z,13.47
2023-04-30T09:15:41.827Z,16.30
2023-04-30T09:18:16.758Z,11.50
2023-04-30T09:20:55.930Z,12.83
2023-04-30T09:23:22.979Z,10.77
2023-04-30T09:25:50.289Z,11.43
2023-04-30T09:28:17.239Z,11.03
2023-04-30T09:30:43.947Z,10.93
2023-04-30T09:33:12.163Z,12.33
2023-04-30T09:35:40.238Z,13.00
2023-04-30T09:38:07.033Z,14.07
2023-04-30T09:40:37.965Z,10.77
2023-04-30T09:43:04.730Z,9.87
2023-04-30T09:46:00.913Z,9.63
2023-04-30T09:48:28.596Z,9.40
2023-04-30T09:50:55.754Z,10.87
2023-04-30T09:53:23.908Z,10.37
2023-04-30T09:55:51.277Z,10.60
2023-04-30T09:58:19.326Z,8.73
2023-04-30T10:00:47.109Z,9.47
2023-04-30T10:03:15.051Z,9.27
2023-04-30T10:05:47.671Z,8.50
2023-04-30T10:08:34.625Z,8.03
2023-04-30T10:11:05.519Z,7.30
2023-04-30T10:13:33.761Z,7.73
2023-04-30T10:16:04.634Z,6.33
2023-04-30T10:18:35.469Z,7.33
2023-04-30T10:21:10.477Z,7.57
2023-04-30T10:23:43.689Z,7.47
2023-04-30T10:26:12.523Z,7.80
2023-04-30T10:28:40.821Z,9.10
2023-04-30T10:31:07.866Z,9.17
2023-04-30T10:33:42.911Z,5.13
2023-04-30T10:36:12.894Z,3.50
2023-04-30T10:38:39.919Z,4.30
2023-04-30T10:41:07.098Z,5.83
2023-04-30T10:43:36.065Z,4.60
2023-04-30T10:46:04.326Z,7.03
2023-04-30T10:48:33.556Z,6.53
2023-04-30T10:51:00.285Z,5.67
2023-04-30T10:53:31.503Z,5.07
2023-04-30T10:55:59.953Z,4.50
2023-04-30T10:58:36.531Z,4.70
2023-04-30T11:01:08.799Z,4.83
2023-04-30T11:03:36.205Z,4.20
2023-04-30T11:06:16.337Z,4.13
2023-04-30T11:08:44.703Z,5.50
2023-04-30T11:11:11.559Z,2.73
2023-04-30T11:13:45.410Z,2.87
2023-04-30T11:16:12.402Z,4.47
2023-04-30T11:18:46.072Z,4.50
2023-04-30T11:21:13.250Z,4.63
2023-04-30T11:23:43.648Z,5.67
2023-04-30T11:26:10.756Z,5.30
2023-04-30T11:28:38.273Z,5.17
2023-04-30T11:31:05.213Z,6.50
2023-04-30T11:33:32.947Z,4.73
2023-04-30T11:36:00.509Z,5.17
2023-04-30T11:38:31.292Z,5.27
2023-04-30T11:40:58.534Z,6.10
2023-04-30T11:43:29.298Z,5.60
2023-04-30T11:46:03.473Z,6.40
2023-04-30T11:48:34.832Z,6.13
2023-04-30T11:51:17.670Z,5.80
2023-04-30T11:53:49.098Z,6.80
2023-04-30T11:56:20.785Z,6.70
2023-04-30T11:58:48.277Z,6.70
2023-04-30T12:01:15.332Z,5.97
2023-04-30T12:03:46.346Z,5.60
2023-04-30T12:06:26.625Z,4.77
2023-04-30T12:08:54.826Z,5.87
2023-04-30T12:11:22.437Z,4.20
2023-04-30T12:13:53.371Z,6.73
2023-04-30T12:16:20.277Z,4.63
2023-04-30T12:18:47.506Z,4.90
2023-04-30T12:21:14.831Z,5.47
2023-04-30T12:23:42.240Z,3.93
2023-04-30T12:26:08.951Z,3.63
2023-04-30T12:28:35.614Z,4.30
2023-04-30T12:31:06.242Z,3.37
2023-04-30T12:33:33.087Z,5.07
2023-04-30T12:35:59.896Z,5.13
2023-04-30T12:38:26.698Z,4.70
2023-04-30T12:40:53.516Z,4.77
2023-04-30T12:43:20.527Z,5.17
2023-04-30T12:45:47.827Z,5.80
2023-04-30T12:48:15.427Z,5.87
2023-04-30T12:50:43.172Z,5.03
2023-04-30T12:53:09.899Z,5.10
2023-04-30T12:55:38.493Z,4.70
2023-04-30T12:58:06.521Z,4.47
2023-04-30T13:00:46.751Z,3.70
2023-04-30T13:03:14.015Z,3.90
2023-04-30T13:05:42.370Z,2.73
2023-04-30T13:08:09.893Z,3.70
2023-04-30T13:10:36.987Z,5.30
2023-04-30T13:13:04.005Z,3.83
2023-04-30T13:15:31.170Z,3.80
2023-04-30T13:17:58.424Z,5.17
2023-04-30T13:20:25.841Z,5.17
2023-04-30T13:22:52.727Z,3.30
2023-04-30T13:25:20.007Z,4.10
2023-04-30T13:27:46.806Z,3.67
2023-04-30T13:30:13.745Z,3.90
2023-04-30T13:32:41.388Z,4.07
2023-04-30T13:35:08.502Z,3.83
2023-04-30T13:37:35.988Z,3.13
2023-04-30T13:40:04.160Z,2.53
2023-04-30T13:42:30.958Z,3.60
2023-04-30T13:44:58.011Z,2.87
2023-04-30T13:47:24.866Z,2.87
2023-04-30T13:49:52.113Z,6.23
2023-04-30T13:52:19.000Z,2.70
2023-04-30T13:54:45.908Z,2.63
2023-04-30T13:57:12.634Z,2.93
2023-04-30T13:59:39.324Z,3.80
2023-04-30T14:02:06.613Z,2.67
2023-04-30T14:04:33.415Z,4.63
2023-04-30T14:07:01.579Z,2.57
2023-04-30T14:09:29.550Z,4.50
2023-04-30T14:11:59.239Z,3.87
2023-04-30T14:14:26.647Z,2.63
2023-04-30T14:16:54.150Z,2.20
2023-04-30T14:19:22.804Z,3.17
2023-04-30T14:21:49.475Z,2.27
2023-04-30T14:24:16.394Z,3.40
2023-04-30T14:26:43.137Z,2.37
2023-04-30T14:29:09.892Z,2.33
2023-04-30T14:31:36.617Z,2.07
2023-04-30T14:34:03.333Z,2.23
2023-04-30T14:36:30.034Z,2.17
2023-04-30T14:38:56.886Z,2.77
2023-04-30T14:41:23.683Z,3.83
2023-04-30T14:43:50.391Z,2.63
2023-04-30T14:46:17.172Z,3.10
2023-04-30T14:48:45.888Z,2.17
2023-04-30T14:51:12.847Z,3.33
2023-04-30T14:53:39.583Z,2.77
2023-04-30T14:56:07.368Z,2.17
2023-04-30T14:58:34.092Z,2.40
2023-04-30T15:01:00.918Z,3.70
2023-04-30T15:03:28.031Z,2.93
2023-04-30T15:05:54.977Z,5.03
2023-04-30T15:08:21.981Z,2.33
2023-04-30T15:10:49.318Z,6.00
2023-04-30T15:13:16.654Z,1.30
2023-04-30T15:15:43.695Z,1.73
2023-04-30T15:18:10.834Z,2.30
2023-04-30T15:20:37.677Z,1.43
2023-04-30T15:23:04.401Z,2.53
2023-04-30T15:25:31.755Z,1.63
2023-04-30T15:27:58.516Z,2.90
2023-04-30T15:30:25.241Z,2.07
2023-04-30T15:32:52.224Z,4.43
2023-04-30T15:35:18.972Z,2.53
2023-04-30T15:37:45.755Z,3.30
2023-04-30T15:40:15.704Z,2.57
2023-04-30T15:42:42.761Z,2.80
2023-04-30T15:45:10.578Z,3.73
2023-04-30T15:47:40.485Z,2.50
2023-04-30T15:50:07.861Z,5.40
2023-04-30T15:52:34.680Z,6.33
2023-04-30T15:55:01.454Z,1.90
2023-04-30T15:57:28.364Z,2.70
2023-04-30T15:59:55.374Z,1.87
2023-04-30T16:02:22.338Z,2.10
2023-04-30T16:04:49.108Z,1.83
2023-04-30T16:07:16.362Z,2.47
2023-04-30T16:09:45.965Z,1.70
2023-04-30T16:12:12.754Z,1.37
2023-04-30T16:14:39.530Z,1.20
2023-04-30T16:17:06.251Z,1.60
2023-04-30T16:19:33.294Z,2.83
2023-04-30T16:22:01.415Z,1.80
2023-04-30T16:24:28.311Z,1.80
2023-04-30T16:26:55.046Z,1.60
2023-04-30T16:29:21.851Z,2.20
2023-04-30T16:31:48.619Z,3.23
2023-04-30T16:34:15.442Z,1.67
2023-04-30T16:36:42.190Z,2.27
2023-04-30T16:39:08.892Z,1.30
2023-04-30T16:41:35.936Z,1.43
2023-04-30T16:44:03.255Z,1.70
2023-04-30T16:46:30.033Z,1.80
2023-04-30T16:48:56.833Z,2.93
2023-04-30T16:51:23.591Z,2.13
2023-04-30T16:53:50.303Z,2.40
2023-04-30T16:56:17.042Z,1.77
2023-04-30T16:58:43.755Z,2.67
2023-04-30T17:01:10.555Z,3.80
2023-04-30T17:03:37.573Z,1.60
2023-04-30T17:06:06.143Z,1.97
2023-04-30T17:08:32.914Z,1.87
2023-04-30T17:10:59.717Z,3.30
2023-04-30T17:13:26.574Z,2.20
2023-04-30T17:16:01.665Z,1.80
2023-04-30T17:18:28.944Z,2.33
2023-04-30T17:20:56.487Z,3.27
2023-04-30T17:23:23.458Z,3.87
2023-04-30T17:25:50.456Z,2.70
2023-04-30T17:28:17.458Z,1.73
2023-04-30T17:30:45.292Z,1.40
2023-04-30T17:33:12.061Z,2.00
2023-04-30T17:35:38.821Z,3.07
2023-04-30T17:38:05.684Z,2.47
2023-04-30T17:40:35.294Z,1.97
2023-04-30T17:43:02.065Z,3.13
2023-04-30T17:45:29.046Z,1.80
2023-04-30T17:47:56.125Z,1.50
2023-04-30T17:50:22.981Z,3.00
2023-04-30T17:52:50.367Z,1.40
2023-04-30T17:55:17.180Z,1.30
2023-04-30T17:57:44.405Z,1.50
2023-04-30T18:00:11.623Z,1.33
2023-04-30T18:02:41.992Z,2.27
2023-04-30T18:05:09.202Z,3.20
2023-04-30T18:07:35.966Z,2.40
2023-04-30T18:10:02.782Z,2.80
2023-04-30T18:12:29.484Z,1.67
2023-04-30T18:14:56.222Z,1.23
2023-04-30T18:17:23.113Z,1.80
2023-04-30T18:19:50.045Z,1.50
2023-04-30T18:22:16.975Z,4.63
2023-04-30T18:24:43.904Z,2.53
2023-04-30T18:27:10.732Z,3.03
2023-04-30T18:29:37.570Z,2.33
2023-04-30T18:32:04.414Z,1.73
2023-04-30T18:34:31.331Z,1.20
2023-04-30T18:36:58.179Z,1.43
2023-04-30T18:39:24.974Z,1.53
2023-04-30T18:41:51.762Z,2.00
2023-04-30T18:44:19.524Z,2.50
2023-04-30T18:46:46.381Z,1.77
2023-04-30T18:49:13.877Z,1.40
2023-04-30T18:51:40.878Z,1.23
2023-04-30T18:54:07.694Z,1.40
2023-04-30T18:56:34.491Z,1.37
2023-04-30T18:59:01.405Z,3.10
2023-04-30T19:01:28.527Z,1.63
2023-04-30T19:03:56.417Z,2.83
2023-04-30T19:06:23.558Z,1.43
2023-04-30T19:08:50.671Z,1.63
2023-04-30T19:11:17.605Z,3.13
2023-04-30T19:13:44.398Z,1.63
2023-04-30T19:16:11.196Z,1.70
2023-04-30T19:18:39.734Z,1.43
2023-04-30T19:21:07.439Z,2.13
2023-04-30T19:23:38.251Z,4.03
2023-04-30T19:26:05.100Z,2.00
2023-04-30T19:28:32.135Z,2.03
2023-04-30T19:30:58.967Z,4.17
2023-04-30T19:33:25.770Z,3.17
2023-04-30T19:35:55.514Z,3.13
2023-04-30T19:38:22.253Z,2.13
2023-04-30T19:40:49.546Z,2.63
2023-04-30T19:43:16.511Z,2.10
2023-04-30T19:45:44.107Z,1.43
2023-04-30T19:48:11.106Z,3.10
2023-04-30T19:50:40.679Z,4.60
2023-04-30T19:53:07.860Z,2.80
2023-04-30T19:55:34.579Z,2.73
2023-04-30T19:58:01.335Z,1.53
2023-04-30T20:00:29.346Z,4.57
2023-04-30T20:02:56.225Z,5.10
2023-04-30T20:05:23.000Z,1.90
2023-04-30T20:07:49.751Z,3.93
2023-04-30T20:10:17.278Z,2.93
2023-04-30T20:12:43.952Z,2.53
2023-04-30T20:15:10.809Z,3.30
2023-04-30T20:17:38.050Z,1.87
2023-04-30T20:20:06.062Z,2.03
2023-04-30T20:22:33.307Z,2.87
2023-04-30T20:25:02.649Z,3.73
2023-04-30T20:27:29.720Z,1.77
2023-04-30T20:29:56.722Z,2.73
2023-04-30T20:32:23.864Z,3.33
2023-04-30T20:34:51.602Z,2.30
2023-04-30T20:37:19.786Z,4.27
2023-04-30T20:39:46.586Z,3.53
2023-04-30T20:42:13.681Z,1.87
2023-04-30T20:44:40.858Z,2.57
2023-04-30T20:47:09.445Z,4.23
2023-04-30T20:49:36.478Z,2.33
2023-04-30T20:52:04.409Z,3.93
2023-04-30T20:54:31.185Z,2.70
2023-04-30T20:56:58.380Z,2.67
2023-04-30T20:59:25.150Z,3.23
2023-04-30T21:01:51.957Z,2.93
2023-04-30T21:04:19.049Z,2.97
2023-04-30T21:06:45.833Z,3.70
2023-04-30T21:09:12.677Z,3.37
2023-04-30T21:11:39.514Z,3.00
2023-04-30T21:14:06.270Z,2.03
2023-04-30T21:16:33.145Z,4.50
2023-04-30T21:18:59.903Z,3.70
2023-04-30T21:21:27.688Z,3.37
2023-04-30T21:23:54.436Z,3.50
2023-04-30T21:26:22.021Z,4.13
2023-04-30T21:28:51.265Z,8.43
2023-04-30T21:31:18.112Z,3.40
2023-04-30T21:33:46.266Z,3.07
2023-04-30T21:36:13.310Z,3.73
2023-04-30T21:38:40.056Z,3.27
2023-04-30T21:41:07.126Z,3.70
2023-04-30T21:43:33.837Z,3.07
2023-04-30T21:46:04.069Z,3.17
2023-04-30T21:48:30.887Z,2.83
2023-04-30T21:50:57.582Z,4.53
2023-04-30T21:53:24.303Z,2.97
2023-04-30T21:55:50.981Z,4.53
2023-04-30T21:58:17.712Z,4.33
2023-04-30T22:00:44.932Z,5.20
2023-04-30T22:03:11.812Z,2.27
2023-04-30T22:05:40.002Z,3.20
2023-04-30T22:08:06.857Z,4.63
2023-04-30T22:10:33.607Z,5.03
2023-04-30T22:13:00.381Z,4.27
2023-04-30T22:15:34.117Z,5.73
2023-04-30T22:18:04.612Z,4.60
2023-04-30T22:20:31.330Z,5.30
2023-04-30T22:22:58.431Z,6.00
2023-04-30T22:25:26.089Z,4.30
2023-04-30T22:27:52.860Z,7.07
2023-04-30T22:30:19.654Z,6.33
2023-04-30T22:32:46.495Z,7.67
2023-04-30T22:35:15.329Z,3.67
2023-04-30T22:37:42.071Z,4.93
2023-04-30T22:40:09.016Z,4.97
2023-04-30T22:42:36.028Z,6.23
2023-04-30T22:45:02.774Z,5.00
2023-04-30T22:47:29.710Z,6.03
2023-04-30T22:49:57.033Z,9.90
2023-04-30T22:52:24.542Z,8.00
2023-04-30T22:54:51.386Z,7.47
2023-04-30T22:57:18.358Z,7.13
2023-04-30T22:59:45.088Z,5.87
2023-04-30T23:02:11.882Z,6.33
2023-04-30T23:04:38.895Z,6.73
2023-04-30T23:07:05.986Z,5.47
2023-04-30T23:09:34.053Z,4.80
2023-04-30T23:12:01.688Z,6.40
2023-04-30T23:14:28.567Z,5.93
2023-04-30T23:16:55.557Z,6.50
2023-04-30T23:19:22.283Z,5.73
2023-04-30T23:21:49.049Z,5.73
2023-04-30T23:24:15.810Z,9.30
2023-04-30T23:26:42.921Z,4.70
2023-04-30T23:29:09.670Z,6.93
2023-04-30T23:31:36.970Z,5.10
2023-04-30T23:34:04.183Z,6.63
2023-04-30T23:36:31.376Z,7.00
2023-04-30T23:38:58.099Z,5.73
2023-04-30T23:41:25.001Z,7.27
2023-04-30T23:43:51.679Z,5.40
2023-04-30T23:46:19.388Z,4.87
2023-04-30T23:48:46.222Z,5.63
2023-04-30T23:51:12.919Z,8.50
2023-04-30T23:53:40.027Z,5.67
2023-04-30T23:56:06.890Z,6.20
2023-04-30T23:58:33.653Z,6.20
